sensor_id;sensor_type;location;lat;lon;timestamp;pressure;altitude;pressure_sealevel;temperature;humidity
73594;BME280;64760;53.404;23.498;2023-04-01T00:01:46;97735.72;;;7.81;100.00
73594;BME280;64760;53.404;23.498;2023-04-01T00:04:12;97729.31;;;7.70;100.00
73594;BME280;64760;53.404;23.498;2023-04-01T00:06:39;97717.69;;;7.65;100.00
73594;BME280;64760;53.404;23.498;2023-04-01T00:09:05;97694.81;;;7.45;100.00
73594;BME280;64760;53.404;23.498;2023-04-01T00:11:32;97718.25;;;7.55;100.00
73594;BME280;64760;53.404;23.498;2023-04-01T00:13:58;97714.06;;;7.47;100.00
73594;BME280;64760;53.404;23.498;2023-04-01T00:16:25;97701.63;;;7.41;100.00
73594;BME280;64760;53.404;23.498;2023-04-01T00:18:51;97707.69;;;7.48;100.00
73594;BME280;64760;53.404;23.498;2023-04-01T00:21:19;97711.44;;;7.59;100.00
73594;BME280;64760;53.404;23.498;2023-04-01T00:23:46;97706.28;;;7.46;100.00
73594;BME280;64760;53.404;23.498;2023-04-01T00:26:13;97712.88;;;7.43;100.00
73594;BME280;64760;53.404;23.498;2023-04-01T00:28:40;97701.94;;;7.33;100.00
73594;BME280;64760;53.404;23.498;2023-04-01T00:31:08;97703.94;;;7.38;100.00
73594;BME280;64760;53.404;23.498;2023-04-01T00:33:35;97698.59;;;7.38;100.00
73594;BME280;64760;53.404;23.498;2023-04-01T00:36:17;97690.97;;;7.41;100.00
73594;BME280;64760;53.404;23.498;2023-04-01T00:38:44;97689.00;;;7.48;100.00
73594;BME280;64760;53.404;23.498;2023-04-01T00:41:13;97690.19;;;7.52;100.00
73594;BME280;64760;53.404;23.498;2023-04-01T00:43:48;97693.59;;;7.60;100.00
73594;BME280;64760;53.404;23.498;2023-04-01T00:46:15;97681.44;;;7.64;100.00
73594;BME280;64760;53.404;23.498;2023-04-01T00:48:53;97679.34;;;7.66;100.00
73594;BME280;64760;53.404;23.498;2023-04-01T00:51:25;97687.81;;;7.74;100.00
73594;BME280;64760;53.404;23.498;2023-04-01T00:53:55;97691.53;;;7.73;100.00
73594;BME280;64760;53.404;23.498;2023-04-01T00:56:31;97693.88;;;7.81;100.00
73594;BME280;64760;53.404;23.498;2023-04-01T00:59:02;97697.13;;;7.83;100.00
73594;BME280;64760;53.404;23.498;2023-04-01T01:01:31;97689.69;;;7.85;100.00
73594;BME280;64760;53.404;23.498;2023-04-01T01:03:58;97683.09;;;7.76;100.00
73594;BME280;64760;53.404;23.498;2023-04-01T01:06:43;97688.53;;;7.81;100.00
73594;BME280;64760;53.404;23.498;2023-04-01T01:11:54;97683.78;;;7.72;100.00
73594;BME280;64760;53.404;23.498;2023-04-01T01:14:39;97681.78;;;7.67;100.00
73594;BME280;64760;53.404;23.498;2023-04-01T01:23:03;97682.25;;;7.64;100.00
73594;BME280;64760;53.404;23.498;2023-04-01T01:31:12;97671.53;;;7.52;100.00
73594;BME280;64760;53.404;23.498;2023-04-01T01:33:51;97676.06;;;7.52;100.00
73594;BME280;64760;53.404;23.498;2023-04-01T01:36:21;97671.44;;;7.59;100.00
73594;BME280;64760;53.404;23.498;2023-04-01T01:38:48;97659.41;;;7.68;100.00
73594;BME280;64760;53.404;23.498;2023-04-01T01:41:18;97654.78;;;7.64;100.00
73594;BME280;64760;53.404;23.498;2023-04-01T01:43:48;97671.13;;;7.67;100.00
73594;BME280;64760;53.404;23.498;2023-04-01T01:46:22;97661.81;;;7.58;100.00
73594;BME280;64760;53.404;23.498;2023-04-01T01:48:51;97661.00;;;7.57;100.00
73594;BME280;64760;53.404;23.498;2023-04-01T01:51:19;97657.75;;;7.55;100.00
73594;BME280;64760;53.404;23.498;2023-04-01T01:53:47;97662.84;;;7.57;100.00
73594;BME280;64760;53.404;23.498;2023-04-01T01:56:18;97654.16;;;7.62;100.00
73594;BME280;64760;53.404;23.498;2023-04-01T01:58:50;97660.53;;;7.61;100.00
73594;BME280;64760;53.404;23.498;2023-04-01T02:01:24;97666.34;;;7.57;100.00
73594;BME280;64760;53.404;23.498;2023-04-01T02:03:55;97642.19;;;7.52;100.00
73594;BME280;64760;53.404;23.498;2023-04-01T02:06:24;97639.66;;;7.57;100.00
73594;BME280;64760;53.404;23.498;2023-04-01T02:11:34;97647.44;;;7.59;100.00
73594;BME280;64760;53.404;23.498;2023-04-01T02:14:07;97636.88;;;7.52;100.00
73594;BME280;64760;53.404;23.498;2023-04-01T02:16:41;97643.28;;;7.63;100.00
73594;BME280;64760;53.404;23.498;2023-04-01T02:19:11;97633.66;;;7.62;100.00
73594;BME280;64760;53.404;23.498;2023-04-01T02:21:39;97630.38;;;7.48;100.00
73594;BME280;64760;53.404;23.498;2023-04-01T02:24:11;97640.28;;;7.60;100.00
73594;BME280;64760;53.404;23.498;2023-04-01T02:26:39;97634.00;;;7.54;100.00
73594;BME280;64760;53.404;23.498;2023-04-01T02:29:07;97627.94;;;7.47;100.00
73594;BME280;64760;53.404;23.498;2023-04-01T02:31:35;97634.91;;;7.48;100.00
73594;BME280;64760;53.404;23.498;2023-04-01T02:34:03;97631.31;;;7.54;100.00
73594;BME280;64760;53.404;23.498;2023-04-01T02:36:30;97629.13;;;7.63;100.00
73594;BME280;64760;53.404;23.498;2023-04-01T02:38:58;97628.09;;;7.52;100.00
73594;BME280;64760;53.404;23.498;2023-04-01T02:41:28;97623.66;;;7.46;100.00
73594;BME280;64760;53.404;23.498;2023-04-01T02:43:55;97625.28;;;7.47;100.00
73594;BME280;64760;53.404;23.498;2023-04-01T02:46:23;97626.78;;;7.43;100.00
73594;BME280;64760;53.404;23.498;2023-04-01T02:48:50;97628.50;;;7.37;100.00
73594;BME280;64760;53.404;23.498;2023-04-01T02:51:16;97633.16;;;7.42;100.00
73594;BME280;64760;53.404;23.498;2023-04-01T02:53:42;97633.59;;;7.39;100.00
73594;BME280;64760;53.404;23.498;2023-04-01T02:56:09;97636.06;;;7.40;100.00
73594;BME280;64760;53.404;23.498;2023-04-01T02:58:36;97628.06;;;7.40;100.00
73594;BME280;64760;53.404;23.498;2023-04-01T03:01:02;97623.31;;;7.42;100.00
73594;BME280;64760;53.404;23.498;2023-04-01T03:03:28;97623.63;;;7.34;100.00
73594;BME280;64760;53.404;23.498;2023-04-01T03:05:55;97624.44;;;7.35;100.00
73594;BME280;64760;53.404;23.498;2023-04-01T03:08:22;97623.53;;;7.41;100.00
73594;BME280;64760;53.404;23.498;2023-04-01T03:10:48;97615.78;;;7.39;100.00
73594;BME280;64760;53.404;23.498;2023-04-01T03:13:15;97620.16;;;7.34;100.00
73594;BME280;64760;53.404;23.498;2023-04-01T03:15:42;97623.41;;;7.36;100.00
73594;BME280;64760;53.404;23.498;2023-04-01T03:18:09;97611.94;;;7.35;100.00
73594;BME280;64760;53.404;23.498;2023-04-01T03:20:35;97613.56;;;7.36;100.00
73594;BME280;64760;53.404;23.498;2023-04-01T03:23:02;97624.25;;;7.48;100.00
73594;BME280;64760;53.404;23.498;2023-04-01T03:25:28;97611.97;;;7.47;100.00
73594;BME280;64760;53.404;23.498;2023-04-01T03:27:56;97615.19;;;7.49;100.00
73594;BME280;64760;53.404;23.498;2023-04-01T03:30:26;97616.09;;;7.31;100.00
73594;BME280;64760;53.404;23.498;2023-04-01T03:32:52;97613.22;;;7.44;100.00
73594;BME280;64760;53.404;23.498;2023-04-01T03:35:19;97617.44;;;7.52;100.00
73594;BME280;64760;53.404;23.498;2023-04-01T03:37:46;97624.03;;;7.61;100.00
73594;BME280;64760;53.404;23.498;2023-04-01T03:40:12;97625.53;;;7.57;100.00
73594;BME280;64760;53.404;23.498;2023-04-01T03:42:39;97623.09;;;7.44;100.00
73594;BME280;64760;53.404;23.498;2023-04-01T03:45:06;97632.97;;;7.55;100.00
73594;BME280;64760;53.404;23.498;2023-04-01T03:47:32;97635.69;;;7.48;100.00
73594;BME280;64760;53.404;23.498;2023-04-01T03:49:59;97632.47;;;7.46;100.00
73594;BME280;64760;53.404;23.498;2023-04-01T03:52:26;97639.31;;;7.54;100.00
73594;BME280;64760;53.404;23.498;2023-04-01T03:54:52;97645.94;;;7.51;100.00
73594;BME280;64760;53.404;23.498;2023-04-01T03:57:19;97640.31;;;7.41;100.00
73594;BME280;64760;53.404;23.498;2023-04-01T03:59:46;97648.28;;;7.30;100.00
73594;BME280;64760;53.404;23.498;2023-04-01T04:02:13;97643.28;;;7.22;100.00
73594;BME280;64760;53.404;23.498;2023-04-01T04:04:39;97647.81;;;7.33;100.00
73594;BME280;64760;53.404;23.498;2023-04-01T04:07:07;97648.06;;;7.31;100.00
73594;BME280;64760;53.404;23.498;2023-04-01T04:09:53;97645.47;;;7.25;100.00
73594;BME280;64760;53.404;23.498;2023-04-01T04:12:19;97642.78;;;7.43;100.00
73594;BME280;64760;53.404;23.498;2023-04-01T04:14:46;97638.16;;;7.50;100.00
73594;BME280;64760;53.404;23.498;2023-04-01T04:17:12;97644.19;;;7.57;100.00
73594;BME280;64760;53.404;23.498;2023-04-01T04:19:43;97647.34;;;7.66;100.00
73594;BME280;64760;53.404;23.498;2023-04-01T04:22:10;97649.44;;;7.64;100.00
73594;BME280;64760;53.404;23.498;2023-04-01T04:24:37;97653.75;;;7.76;100.00
73594;BME280;64760;53.404;23.498;2023-04-01T04:27:08;97661.03;;;7.69;100.00
73594;BME280;64760;53.404;23.498;2023-04-01T04:29:41;97654.53;;;7.65;100.00
73594;BME280;64760;53.404;23.498;2023-04-01T04:32:07;97650.50;;;7.74;100.00
73594;BME280;64760;53.404;23.498;2023-04-01T04:34:33;97652.00;;;7.70;100.00
73594;BME280;64760;53.404;23.498;2023-04-01T04:37:00;97656.19;;;7.78;100.00
73594;BME280;64760;53.404;23.498;2023-04-01T04:39:30;97650.59;;;7.68;100.00
73594;BME280;64760;53.404;23.498;2023-04-01T04:41:57;97653.75;;;7.76;100.00
73594;BME280;64760;53.404;23.498;2023-04-01T04:44:23;97648.63;;;7.63;100.00
73594;BME280;64760;53.404;23.498;2023-04-01T04:46:50;97650.16;;;7.82;100.00
73594;BME280;64760;53.404;23.498;2023-04-01T04:49:16;97648.28;;;7.71;100.00
73594;BME280;64760;53.404;23.498;2023-04-01T04:51:43;97659.78;;;7.83;100.00
73594;BME280;64760;53.404;23.498;2023-04-01T04:54:10;97654.78;;;7.64;100.00
73594;BME280;64760;53.404;23.498;2023-04-01T04:56:55;97653.59;;;7.60;100.00
73594;BME280;64760;53.404;23.498;2023-04-01T04:59:23;97649.78;;;7.67;100.00
73594;BME280;64760;53.404;23.498;2023-04-01T05:02:05;97652.34;;;7.74;100.00
73594;BME280;64760;53.404;23.498;2023-04-01T05:04:36;97654.31;;;7.78;100.00
73594;BME280;64760;53.404;23.498;2023-04-01T05:07:03;97657.56;;;7.80;100.00
73594;BME280;64760;53.404;23.498;2023-04-01T05:09:31;97659.31;;;7.86;100.00
73594;BME280;64760;53.404;23.498;2023-04-01T05:11:58;97658.28;;;7.87;100.00
73594;BME280;64760;53.404;23.498;2023-04-01T05:14:26;97657.00;;;7.78;100.00
73594;BME280;64760;53.404;23.498;2023-04-01T05:16:59;97658.72;;;7.73;100.00
73594;BME280;64760;53.404;23.498;2023-04-01T05:19:25;97662.09;;;7.68;100.00
73594;BME280;64760;53.404;23.498;2023-04-01T05:21:52;97655.13;;;7.67;100.00
73594;BME280;64760;53.404;23.498;2023-04-01T05:24:19;97657.22;;;7.77;100.00
73594;BME280;64760;53.404;23.498;2023-04-01T05:26:46;97663.19;;;7.61;100.00
73594;BME280;64760;53.404;23.498;2023-04-01T05:29:13;97659.41;;;7.68;100.00
73594;BME280;64760;53.404;23.498;2023-04-01T05:31:40;97663.94;;;7.68;100.00
73594;BME280;64760;53.404;23.498;2023-04-01T05:34:06;97666.50;;;7.74;100.00
73594;BME280;64760;53.404;23.498;2023-04-01T05:36:33;97667.19;;;7.70;100.00
73594;BME280;64760;53.404;23.498;2023-04-01T05:39:00;97665.56;;;7.80;100.00
73594;BME280;64760;53.404;23.498;2023-04-01T05:41:27;97667.69;;;7.90;100.00
73594;BME280;64760;53.404;23.498;2023-04-01T05:43:54;97665.13;;;7.83;100.00
73594;BME280;64760;53.404;23.498;2023-04-01T05:46:39;97661.16;;;7.74;100.00
73594;BME280;64760;53.404;23.498;2023-04-01T05:49:15;97659.53;;;7.73;100.00
73594;BME280;64760;53.404;23.498;2023-04-01T05:51:42;97664.50;;;7.70;100.00
73594;BME280;64760;53.404;23.498;2023-04-01T05:54:09;97661.63;;;7.71;100.00
73594;BME280;64760;53.404;23.498;2023-04-01T05:56:36;97662.44;;;7.72;100.00
73594;BME280;64760;53.404;23.498;2023-04-01T05:59:02;97659.88;;;7.88;100.00
73594;BME280;64760;53.404;23.498;2023-04-01T06:01:29;97661.84;;;7.81;100.00
73594;BME280;64760;53.404;23.498;2023-04-01T06:03:55;97661.19;;;7.86;100.00
73594;BME280;64760;53.404;23.498;2023-04-01T06:06:26;97668.84;;;7.94;100.00
73594;BME280;64760;53.404;23.498;2023-04-01T06:08:59;97660.03;;;7.93;100.00
73594;BME280;64760;53.404;23.498;2023-04-01T06:11:56;97663.38;;;8.00;100.00
73594;BME280;64760;53.404;23.498;2023-04-01T06:14:41;97664.56;;;8.04;100.00
73594;BME280;64760;53.404;23.498;2023-04-01T06:17:38;97674.31;;;8.11;100.00
73594;BME280;64760;53.404;23.498;2023-04-01T06:25:54;97670.69;;;8.05;100.00
73594;BME280;64760;53.404;23.498;2023-04-01T06:51:12;97670.84;;;8.33;100.00
73594;BME280;64760;53.404;23.498;2023-04-01T06:54:08;97659.25;;;8.39;100.00
73594;BME280;64760;53.404;23.498;2023-04-01T06:59:47;97662.03;;;8.44;100.00
73594;BME280;64760;53.404;23.498;2023-04-01T07:02:44;97666.91;;;8.59;100.00
73594;BME280;64760;53.404;23.498;2023-04-01T07:05:14;97671.41;;;8.70;100.00
73594;BME280;64760;53.404;23.498;2023-04-01T07:07:45;97667.97;;;8.98;100.00
73594;BME280;64760;53.404;23.498;2023-04-01T07:10:23;97672.09;;;8.77;100.00
73594;BME280;64760;53.404;23.498;2023-04-01T07:13:15;97665.25;;;8.70;100.00
73594;BME280;64760;53.404;23.498;2023-04-01T07:16:10;97674.91;;;8.59;100.00
73594;BME280;64760;53.404;23.498;2023-04-01T07:18:50;97671.09;;;8.55;100.00
73594;BME280;64760;53.404;23.498;2023-04-01T07:21:26;97672.81;;;8.61;100.00
73594;BME280;64760;53.404;23.498;2023-04-01T07:24:01;97668.63;;;8.65;100.00
73594;BME280;64760;53.404;23.498;2023-04-01T07:26:38;97674.88;;;8.82;100.00
73594;BME280;64760;53.404;23.498;2023-04-01T07:29:13;97674.97;;;8.76;100.00
73594;BME280;64760;53.404;23.498;2023-04-01T07:40:21;97672.69;;;9.19;100.00
73594;BME280;64760;53.404;23.498;2023-04-01T08:00:00;97677.16;;;9.02;100.00
73594;BME280;64760;53.404;23.498;2023-04-01T08:02:54;97684.13;;;9.03;100.00
73594;BME280;64760;53.404;23.498;2023-04-01T08:14:47;97680.97;;;9.06;100.00
73594;BME280;64760;53.404;23.498;2023-04-01T08:20:41;97680.44;;;9.21;100.00
73594;BME280;64760;53.404;23.498;2023-04-01T08:23:31;97681.09;;;9.28;100.00
73594;BME280;64760;53.404;23.498;2023-04-01T08:26:10;97684.94;;;9.32;100.00
73594;BME280;64760;53.404;23.498;2023-04-01T08:31:39;97681.25;;;9.50;100.00
73594;BME280;64760;53.404;23.498;2023-04-01T08:34:28;97675.28;;;9.59;100.00
73594;BME280;64760;53.404;23.498;2023-04-01T08:37:20;97683.25;;;9.71;99.89
73594;BME280;64760;53.404;23.498;2023-04-01T08:39:59;97677.75;;;9.94;99.00
73594;BME280;64760;53.404;23.498;2023-04-01T08:56:27;97689.34;;;10.00;98.24
73594;BME280;64760;53.404;23.498;2023-04-01T09:05:38;97686.28;;;10.24;98.33
73594;BME280;64760;53.404;23.498;2023-04-01T09:35:54;97711.25;;;9.97;100.00
73594;BME280;64760;53.404;23.498;2023-04-01T09:38:32;97709.38;;;9.97;99.60
73594;BME280;64760;53.404;23.498;2023-04-01T09:41:31;97707.19;;;9.94;100.00
73594;BME280;64760;53.404;23.498;2023-04-01T09:44:37;97715.72;;;10.08;100.00
73594;BME280;64760;53.404;23.498;2023-04-01T09:47:41;97720.59;;;9.94;100.00
73594;BME280;64760;53.404;23.498;2023-04-01T10:35:29;97734.22;;;10.59;97.98
73594;BME280;64760;53.404;23.498;2023-04-01T10:44:04;97742.00;;;10.11;99.85
73594;BME280;64760;53.404;23.498;2023-04-01T10:49:16;97739.22;;;9.89;100.00
73594;BME280;64760;53.404;23.498;2023-04-01T10:55:23;97730.09;;;9.73;100.00
73594;BME280;64760;53.404;23.498;2023-04-01T11:02:00;97748.25;;;9.71;100.00
73594;BME280;64760;53.404;23.498;2023-04-01T11:20:04;97744.06;;;10.37;99.06
73594;BME280;64760;53.404;23.498;2023-04-01T11:34:02;97747.47;;;10.32;99.66
73594;BME280;64760;53.404;23.498;2023-04-01T11:42:14;97751.78;;;10.50;98.62
73594;BME280;64760;53.404;23.498;2023-04-01T11:45:28;97760.47;;;10.41;99.47
73594;BME280;64760;53.404;23.498;2023-04-01T11:59:38;97759.00;;;10.50;98.49
73594;BME280;64760;53.404;23.498;2023-04-01T12:13:39;97762.09;;;10.42;97.84
73594;BME280;64760;53.404;23.498;2023-04-01T12:30:05;97777.03;;;10.38;97.30
73594;BME280;64760;53.404;23.498;2023-04-01T12:35:22;97772.81;;;10.42;97.40
73594;BME280;64760;53.404;23.498;2023-04-01T12:41:07;97777.91;;;10.60;96.84
73594;BME280;64760;53.404;23.498;2023-04-01T12:43:54;97783.50;;;10.75;95.34
73594;BME280;64760;53.404;23.498;2023-04-01T13:00:35;97796.34;;;10.56;95.07
73594;BME280;64760;53.404;23.498;2023-04-01T13:17:19;97809.59;;;10.46;97.47
73594;BME280;64760;53.404;23.498;2023-04-01T13:25:10;97807.72;;;10.47;97.42
73594;BME280;64760;53.404;23.498;2023-04-01T13:27:48;97808.38;;;10.54;96.79
73594;BME280;64760;53.404;23.498;2023-04-01T13:33:11;97804.53;;;10.33;97.17
73594;BME280;64760;53.404;23.498;2023-04-01T13:58:03;97824.44;;;10.54;94.38
73594;BME280;64760;53.404;23.498;2023-04-01T14:06:48;97837.34;;;10.73;93.70
73594;BME280;64760;53.404;23.498;2023-04-01T14:18:07;97843.44;;;10.24;96.54
73594;BME280;64760;53.404;23.498;2023-04-01T14:26:30;97850.09;;;9.53;100.00
73594;BME280;64760;53.404;23.498;2023-04-01T14:29:26;97851.25;;;9.57;100.00
73594;BME280;64760;53.404;23.498;2023-04-01T14:35:19;97858.34;;;9.40;100.00
73594;BME280;64760;53.404;23.498;2023-04-01T14:43:53;97868.00;;;9.41;100.00
73594;BME280;64760;53.404;23.498;2023-04-01T14:49:20;97863.63;;;9.23;100.00
73594;BME280;64760;53.404;23.498;2023-04-01T14:51:49;97870.81;;;9.34;100.00
73594;BME280;64760;53.404;23.498;2023-04-01T14:54:21;97868.13;;;9.46;100.00
73594;BME280;64760;53.404;23.498;2023-04-01T14:57:15;97878.34;;;9.49;100.00
73594;BME280;64760;53.404;23.498;2023-04-01T14:59:51;97877.53;;;9.49;100.00
73594;BME280;64760;53.404;23.498;2023-04-01T15:17:22;97890.59;;;9.22;100.00
73594;BME280;64760;53.404;23.498;2023-04-01T15:30:32;97904.28;;;9.02;100.00
73594;BME280;64760;53.404;23.498;2023-04-01T15:33:30;97911.47;;;8.78;100.00
73594;BME280;64760;53.404;23.498;2023-04-01T15:39:48;97922.31;;;8.54;100.00
73594;BME280;64760;53.404;23.498;2023-04-01T15:42:23;97927.44;;;8.55;100.00
73594;BME280;64760;53.404;23.498;2023-04-01T15:51:38;97924.09;;;8.12;100.00
73594;BME280;64760;53.404;23.498;2023-04-01T15:54:39;97942.63;;;8.07;100.00
73594;BME280;64760;53.404;23.498;2023-04-01T15:57:32;97955.38;;;8.04;100.00
73594;BME280;64760;53.404;23.498;2023-04-01T16:09:16;97969.75;;;7.67;100.00
73594;BME280;64760;53.404;23.498;2023-04-01T16:12:37;97982.94;;;7.62;100.00
73594;BME280;64760;53.404;23.498;2023-04-01T16:20:48;97995.19;;;7.45;100.00
73594;BME280;64760;53.404;23.498;2023-04-01T16:26:07;97998.31;;;7.42;100.00
73594;BME280;64760;53.404;23.498;2023-04-01T16:28:56;97987.97;;;7.52;100.00
73594;BME280;64760;53.404;23.498;2023-04-01T16:31:34;98000.63;;;7.56;100.00
73594;BME280;64760;53.404;23.498;2023-04-01T16:34:24;98010.97;;;7.46;100.00
73594;BME280;64760;53.404;23.498;2023-04-01T16:37:17;98007.22;;;7.29;100.00
73594;BME280;64760;53.404;23.498;2023-04-01T16:39:53;98010.00;;;7.41;100.00
73594;BME280;64760;53.404;23.498;2023-04-01T16:48:13;98023.66;;;7.26;100.00
73594;BME280;64760;53.404;23.498;2023-04-01T16:58:56;98048.91;;;6.92;100.00
73594;BME280;64760;53.404;23.498;2023-04-01T17:02:16;98045.00;;;6.95;100.00
73594;BME280;64760;53.404;23.498;2023-04-01T17:07:02;98051.97;;;6.96;100.00
73594;BME280;64760;53.404;23.498;2023-04-01T17:09:49;98067.56;;;6.92;100.00
73594;BME280;64760;53.404;23.498;2023-04-01T17:12:41;98055.22;;;6.98;100.00
73594;BME280;64760;53.404;23.498;2023-04-01T17:15:21;98063.25;;;6.91;100.00
73594;BME280;64760;53.404;23.498;2023-04-01T17:20:57;98073.63;;;6.68;100.00
73594;BME280;64760;53.404;23.498;2023-04-01T17:26:39;98075.84;;;6.71;100.00
73594;BME280;64760;53.404;23.498;2023-04-01T17:40:15;98094.31;;;6.66;100.00
73594;BME280;64760;53.404;23.498;2023-04-01T17:45:56;98096.56;;;6.63;100.00
73594;BME280;64760;53.404;23.498;2023-04-01T17:55:17;98112.19;;;6.52;100.00
73594;BME280;64760;53.404;23.498;2023-04-01T18:01:08;98118.50;;;6.65;100.00
73594;BME280;64760;53.404;23.498;2023-04-01T18:03:49;98118.94;;;6.55;100.00
73594;BME280;64760;53.404;23.498;2023-04-01T18:17:18;98140.59;;;6.65;100.00
73594;BME280;64760;53.404;23.498;2023-04-01T18:25:41;98141.03;;;6.55;100.00
73594;BME280;64760;53.404;23.498;2023-04-01T18:31:06;98145.19;;;6.45;100.00
73594;BME280;64760;53.404;23.498;2023-04-01T18:39:17;98158.88;;;6.42;100.00
73594;BME280;64760;53.404;23.498;2023-04-01T18:42:08;98170.13;;;6.50;100.00
73594;BME280;64760;53.404;23.498;2023-04-01T18:44:50;98174.84;;;6.42;100.00
73594;BME280;64760;53.404;23.498;2023-04-01T18:47:43;98149.88;;;6.43;100.00
73594;BME280;64760;53.404;23.498;2023-04-01T18:55:49;98174.28;;;6.27;100.00
73594;BME280;64760;53.404;23.498;2023-04-01T18:58:23;98195.97;;;6.24;100.00
73594;BME280;64760;53.404;23.498;2023-04-01T19:01:14;98191.44;;;6.37;100.00
73594;BME280;64760;53.404;23.498;2023-04-01T19:04:00;98183.09;;;6.21;100.00
73594;BME280;64760;53.404;23.498;2023-04-01T19:06:33;98203.56;;;6.07;100.00
73594;BME280;64760;53.404;23.498;2023-04-01T19:09:18;98202.94;;;6.11;100.00
73594;BME280;64760;53.404;23.498;2023-04-01T19:17:36;98212.34;;;6.07;100.00
73594;BME280;64760;53.404;23.498;2023-04-01T19:20:54;98215.41;;;5.98;100.00
73594;BME280;64760;53.404;23.498;2023-04-01T19:26:11;98219.72;;;5.92;100.00
73594;BME280;64760;53.404;23.498;2023-04-01T19:29:06;98219.72;;;5.92;100.00
73594;BME280;64760;53.404;23.498;2023-04-01T19:36:52;98238.72;;;5.89;100.00
73594;BME280;64760;53.404;23.498;2023-04-01T19:56:24;98257.06;;;5.58;100.00
73594;BME280;64760;53.404;23.498;2023-04-01T19:59:16;98264.59;;;5.48;100.00
73594;BME280;64760;53.404;23.498;2023-04-01T20:01:49;98261.75;;;5.56;100.00
73594;BME280;64760;53.404;23.498;2023-04-01T20:17:52;98285.69;;;5.49;100.00
73594;BME280;64760;53.404;23.498;2023-04-01T20:20:23;98292.41;;;5.52;100.00
73594;BME280;64760;53.404;23.498;2023-04-01T20:25:32;98291.13;;;5.35;100.00
73594;BME280;64760;53.404;23.498;2023-04-01T20:36:18;98296.41;;;5.28;100.00
73594;BME280;64760;53.404;23.498;2023-04-01T20:39:25;98299.50;;;5.32;100.00
73594;BME280;64760;53.404;23.498;2023-04-01T20:42:44;98303.97;;;5.25;100.00
73594;BME280;64760;53.404;23.498;2023-04-01T20:49:20;98322.56;;;5.25;100.00
73594;BME280;64760;53.404;23.498;2023-04-01T20:51:22;98327.03;;;5.17;100.00
73594;BME280;64760;53.404;23.498;2023-04-01T20:54:04;98320.06;;;5.16;100.00
73594;BME280;64760;53.404;23.498;2023-04-01T21:05:20;98342.09;;;5.10;100.00
73594;BME280;64760;53.404;23.498;2023-04-01T21:10:43;98344.63;;;5.25;100.00
73594;BME280;64760;53.404;23.498;2023-04-01T21:15:59;98339.75;;;4.94;100.00
73594;BME280;64760;53.404;23.498;2023-04-01T21:18:46;98361.66;;;5.03;100.00
73594;BME280;64760;53.404;23.498;2023-04-01T21:24:35;98352.28;;;5.07;100.00
73594;BME280;64760;53.404;23.498;2023-04-01T21:32:45;98349.38;;;5.02;100.00
73594;BME280;64760;53.404;23.498;2023-04-01T21:49:30;98360.13;;;4.87;100.00
73594;BME280;64760;53.404;23.498;2023-04-01T21:52:14;98366.72;;;4.70;100.00
73594;BME280;64760;53.404;23.498;2023-04-01T22:01:10;98383.59;;;4.62;100.00
73594;BME280;64760;53.404;23.498;2023-04-01T22:04:23;98368.13;;;4.66;100.00
73594;BME280;64760;53.404;23.498;2023-04-01T22:07:20;98385.78;;;4.52;100.00
73594;BME280;64760;53.404;23.498;2023-04-01T22:12:29;98389.25;;;4.53;100.00
73594;BME280;64760;53.404;23.498;2023-04-01T22:20:36;98388.19;;;4.47;100.00
73594;BME280;64760;53.404;23.498;2023-04-01T22:23:20;98414.94;;;4.46;100.00
73594;BME280;64760;53.404;23.498;2023-04-01T22:32:02;98418.19;;;4.48;100.00
73594;BME280;64760;53.404;23.498;2023-04-01T22:47:36;98447.19;;;4.28;100.00
73594;BME280;64760;53.404;23.498;2023-04-01T22:50:14;98437.66;;;4.34;100.00
73594;BME280;64760;53.404;23.498;2023-04-01T22:52:45;98426.25;;;4.18;100.00
73594;BME280;64760;53.404;23.498;2023-04-01T22:55:18;98431.91;;;4.51;100.00
73594;BME280;64760;53.404;23.498;2023-04-01T23:00:28;98440.66;;;4.31;100.00
73594;BME280;64760;53.404;23.498;2023-04-01T23:03:21;98448.13;;;4.20;100.00
73594;BME280;64760;53.404;23.498;2023-04-01T23:06:00;98448.22;;;4.12;100.00
73594;BME280;64760;53.404;23.498;2023-04-01T23:11:23;98443.53;;;4.14;100.00
73594;BME280;64760;53.404;23.498;2023-04-01T23:16:50;98452.31;;;4.30;100.00
73594;BME280;64760;53.404;23.498;2023-04-01T23:19:26;98463.13;;;4.13;100.00
73594;BME280;64760;53.404;23.498;2023-04-01T23:22:02;98455.88;;;4.22;100.00
73594;BME280;64760;53.404;23.498;2023-04-01T23:25:43;98463.97;;;3.99;100.00
73594;BME280;64760;53.404;23.498;2023-04-01T23:33:29;98482.47;;;3.93;100.00
73594;BME280;64760;53.404;23.498;2023-04-01T23:36:02;98484.91;;;3.94;100.00
73594;BME280;64760;53.404;23.498;2023-04-01T23:38:39;98477.53;;;3.90;100.00
73594;BME280;64760;53.404;23.498;2023-04-01T23:41:23;98503.41;;;3.88;100.00
73594;BME280;64760;53.404;23.498;2023-04-01T23:44:12;98482.97;;;4.03;100.00
73594;BME280;64760;53.404;23.498;2023-04-01T23:46:40;98480.34;;;4.03;100.00
73594;BME280;64760;53.404;23.498;2023-04-01T23:49:20;98497.53;;;3.92;100.00
73594;BME280;64760;53.404;23.498;2023-04-01T23:51:57;98510.53;;;3.72;100.00
73594;BME280;64760;53.404;23.498;2023-04-01T23:54:33;98482.72;;;3.83;100.00
73594;BME280;64760;53.404;23.498;2023-04-01T23:57:05;98492.16;;;3.71;100.00
73594;BME280;64760;53.404;23.498;2023-04-01T23:59:36;98494.81;;;3.86;100.00
